sensor_id;sensor_type;location;lat;lon;timestamp;pressure;altitude;pressure_sealevel;temperature;humidity
30819;BME280;17546;42.674;23.284;2023-04-01T00:00:29;93874.41;;;19.63;35.38
30819;BME280;17546;42.674;23.284;2023-04-01T00:02:54;93862.00;;;19.66;35.47
30819;BME280;17546;42.674;23.284;2023-04-01T00:05:20;93869.13;;;19.67;35.32
30819;BME280;17546;42.674;23.284;2023-04-01T00:07:46;93842.91;;;19.47;35.45
30819;BME280;17546;42.674;23.284;2023-04-01T00:10:13;93860.88;;;19.51;35.44
30819;BME280;17546;42.674;23.284;2023-04-01T00:12:39;93861.28;;;19.48;35.68
30819;BME280;17546;42.674;23.284;2023-04-01T00:15:06;93862.84;;;19.58;35.52
30819;BME280;17546;42.674;23.284;2023-04-01T00:17:32;93864.25;;;19.67;35.30
30819;BME280;17546;42.674;23.284;2023-04-01T00:19:58;93860.69;;;19.49;35.50
30819;BME280;17546;42.674;23.284;2023-04-01T00:22:25;93872.34;;;19.46;35.39
30819;BME280;17546;42.674;23.284;2023-04-01T00:24:51;93853.06;;;19.07;35.72
30819;BME280;17546;42.674;23.284;2023-04-01T00:27:17;93866.41;;;18.41;36.70
30819;BME280;17546;42.674;23.284;2023-04-01T00:29:43;93861.19;;;18.95;36.23
30819;BME280;17546;42.674;23.284;2023-04-01T00:32:09;93867.81;;;19.08;35.95
30819;BME280;17546;42.674;23.284;2023-04-01T00:34:35;93840.31;;;19.06;35.99
30819;BME280;17546;42.674;23.284;2023-04-01T00:37:01;93861.91;;;19.21;35.45
30819;BME280;17546;42.674;23.284;2023-04-01T00:39:29;93837.91;;;19.03;35.52
30819;BME280;17546;42.674;23.284;2023-04-01T00:41:55;93855.91;;;18.99;36.13
30819;BME280;17546;42.674;23.284;2023-04-01T00:44:31;93849.09;;;19.10;35.96
30819;BME280;17546;42.674;23.284;2023-04-01T00:46:58;93844.16;;;19.18;36.22
30819;BME280;17546;42.674;23.284;2023-04-01T00:49:29;93825.16;;;19.09;36.85
30819;BME280;17546;42.674;23.284;2023-04-01T00:51:58;93836.97;;;18.83;36.95
30819;BME280;17546;42.674;23.284;2023-04-01T00:54:26;93841.47;;;19.03;37.04
30819;BME280;17546;42.674;23.284;2023-04-01T00:57:06;93845.59;;;19.02;36.72
30819;BME280;17546;42.674;23.284;2023-04-01T00:59:35;93828.16;;;18.86;36.80
30819;BME280;17546;42.674;23.284;2023-04-01T01:02:03;93816.34;;;18.37;38.02
30819;BME280;17546;42.674;23.284;2023-04-01T01:04:33;93785.97;;;17.93;38.55
30819;BME280;17546;42.674;23.284;2023-04-01T01:12:30;93813.06;;;18.74;36.91
30819;BME280;17546;42.674;23.284;2023-04-01T01:15:20;93800.31;;;18.81;37.05
30819;BME280;17546;42.674;23.284;2023-04-01T01:18:07;93783.94;;;18.69;36.91
30819;BME280;17546;42.674;23.284;2023-04-01T01:36:12;93757.06;;;18.66;36.42
30819;BME280;17546;42.674;23.284;2023-04-01T01:38:39;93766.28;;;18.59;36.52
30819;BME280;17546;42.674;23.284;2023-04-01T01:41:07;93752.59;;;18.63;36.54
30819;BME280;17546;42.674;23.284;2023-04-01T01:43:37;93756.41;;;18.75;36.15
30819;BME280;17546;42.674;23.284;2023-04-01T01:46:17;93765.53;;;18.84;35.79
30819;BME280;17546;42.674;23.284;2023-04-01T01:48:44;93778.72;;;18.91;35.81
30819;BME280;17546;42.674;23.284;2023-04-01T01:51:11;93772.22;;;18.88;35.88
30819;BME280;17546;42.674;23.284;2023-04-01T01:53:36;93752.41;;;18.86;35.57
30819;BME280;17546;42.674;23.284;2023-04-01T01:56:02;93758.09;;;18.96;35.81
30819;BME280;17546;42.674;23.284;2023-04-01T01:58:34;93768.84;;;18.90;35.97
30819;BME280;17546;42.674;23.284;2023-04-01T02:01:07;93763.22;;;18.90;35.62
30819;BME280;17546;42.674;23.284;2023-04-01T02:03:37;93765.03;;;18.95;35.47
30819;BME280;17546;42.674;23.284;2023-04-01T02:06:07;93753.31;;;18.89;35.56
30819;BME280;17546;42.674;23.284;2023-04-01T02:08:47;93757.53;;;18.97;35.76
30819;BME280;17546;42.674;23.284;2023-04-01T02:11:17;93741.53;;;18.90;35.09
30819;BME280;17546;42.674;23.284;2023-04-01T02:13:56;93732.19;;;18.88;35.64
30819;BME280;17546;42.674;23.284;2023-04-01T02:16:36;93743.75;;;18.92;35.31
30819;BME280;17546;42.674;23.284;2023-04-01T02:19:05;93745.56;;;18.97;35.52
30819;BME280;17546;42.674;23.284;2023-04-01T02:21:33;93732.09;;;18.78;35.37
30819;BME280;17546;42.674;23.284;2023-04-01T02:24:01;93744.06;;;18.96;35.01
30819;BME280;17546;42.674;23.284;2023-04-01T02:26:28;93726.25;;;18.84;35.21
30819;BME280;17546;42.674;23.284;2023-04-01T02:28:54;93730.31;;;18.90;35.31
30819;BME280;17546;42.674;23.284;2023-04-01T02:31:21;93761.06;;;18.98;35.18
30819;BME280;17546;42.674;23.284;2023-04-01T02:33:48;93758.25;;;18.98;35.42
30819;BME280;17546;42.674;23.284;2023-04-01T02:36:15;93745.50;;;18.87;35.88
30819;BME280;17546;42.674;23.284;2023-04-01T02:38:42;93734.84;;;18.86;35.73
30819;BME280;17546;42.674;23.284;2023-04-01T02:41:09;93757.97;;;18.94;35.64
30819;BME280;17546;42.674;23.284;2023-04-01T02:43:35;93753.31;;;18.89;35.72
30819;BME280;17546;42.674;23.284;2023-04-01T02:46:00;93755.78;;;18.85;36.15
30819;BME280;17546;42.674;23.284;2023-04-01T02:48:27;93741.81;;;18.77;35.65
30819;BME280;17546;42.674;23.284;2023-04-01T02:50:52;93759.69;;;18.64;36.08
30819;BME280;17546;42.674;23.284;2023-04-01T02:53:18;93752.91;;;18.67;36.09
30819;BME280;17546;42.674;23.284;2023-04-01T02:55:43;93759.28;;;18.68;36.00
30819;BME280;17546;42.674;23.284;2023-04-01T02:58:10;93772.47;;;19.00;35.65
30819;BME280;17546;42.674;23.284;2023-04-01T03:00:36;93778.50;;;18.96;35.84
30819;BME280;17546;42.674;23.284;2023-04-01T03:03:01;93777.09;;;19.05;35.75
30819;BME280;17546;42.674;23.284;2023-04-01T03:05:28;93782.03;;;18.97;35.71
30819;BME280;17546;42.674;23.284;2023-04-01T03:07:53;93783.84;;;19.02;35.33
30819;BME280;17546;42.674;23.284;2023-04-01T03:10:19;93760.16;;;18.95;35.47
30819;BME280;17546;42.674;23.284;2023-04-01T03:12:44;93784.31;;;19.16;35.68
30819;BME280;17546;42.674;23.284;2023-04-01T03:15:12;93788.53;;;18.82;35.86
30819;BME280;17546;42.674;23.284;2023-04-01T03:17:40;93783.19;;;19.11;35.03
30819;BME280;17546;42.674;23.284;2023-04-01T03:20:07;93784.69;;;18.95;35.69
30819;BME280;17546;42.674;23.284;2023-04-01T03:22:34;93784.75;;;19.05;35.89
30819;BME280;17546;42.674;23.284;2023-04-01T03:25:00;93795.91;;;18.95;36.81
30819;BME280;17546;42.674;23.284;2023-04-01T03:27:25;93770.84;;;18.72;37.08
30819;BME280;17546;42.674;23.284;2023-04-01T03:29:51;93789.84;;;18.31;38.16
30819;BME280;17546;42.674;23.284;2023-04-01T03:32:16;93782.88;;;18.40;37.07
30819;BME280;17546;42.674;23.284;2023-04-01T03:34:42;93779.22;;;18.54;37.25
30819;BME280;17546;42.674;23.284;2023-04-01T03:37:07;93774.19;;;18.53;37.44
30819;BME280;17546;42.674;23.284;2023-04-01T03:39:32;93763.34;;;18.49;37.22
30819;BME280;17546;42.674;23.284;2023-04-01T03:41:58;93754.31;;;18.33;37.33
30819;BME280;17546;42.674;23.284;2023-04-01T03:44:24;93753.00;;;18.09;38.29
30819;BME280;17546;42.674;23.284;2023-04-01T03:46:50;93736.38;;;18.36;38.10
30819;BME280;17546;42.674;23.284;2023-04-01T03:49:15;93694.16;;;17.84;38.40
30819;BME280;17546;42.674;23.284;2023-04-01T03:51:42;93693.03;;;18.30;38.82
30819;BME280;17546;42.674;23.284;2023-04-01T03:54:09;93710.31;;;18.44;39.16
30819;BME280;17546;42.674;23.284;2023-04-01T03:56:35;93688.63;;;18.02;39.17
30819;BME280;17546;42.674;23.284;2023-04-01T03:59:05;93686.34;;;18.25;39.07
30819;BME280;17546;42.674;23.284;2023-04-01T04:01:31;93689.03;;;18.41;38.71
30819;BME280;17546;42.674;23.284;2023-04-01T04:03:56;93679.06;;;18.47;39.80
30819;BME280;17546;42.674;23.284;2023-04-01T04:06:23;93678.59;;;18.58;39.16
30819;BME280;17546;42.674;23.284;2023-04-01T04:08:49;93664.41;;;18.39;39.68
30819;BME280;17546;42.674;23.284;2023-04-01T04:11:14;93659.50;;;18.22;39.93
30819;BME280;17546;42.674;23.284;2023-04-01T04:13:44;93655.31;;;18.31;39.53
30819;BME280;17546;42.674;23.284;2023-04-01T04:16:10;93650.78;;;18.35;39.35
30819;BME280;17546;42.674;23.284;2023-04-01T04:18:36;93644.97;;;18.16;38.98
30819;BME280;17546;42.674;23.284;2023-04-01T04:21:03;93652.84;;;18.35;39.07
30819;BME280;17546;42.674;23.284;2023-04-01T04:23:28;93632.41;;;18.42;38.69
30819;BME280;17546;42.674;23.284;2023-04-01T04:25:58;93655.22;;;18.38;38.48
30819;BME280;17546;42.674;23.284;2023-04-01T04:28:24;93650.84;;;18.28;38.83
30819;BME280;17546;42.674;23.284;2023-04-01T04:30:50;93653.81;;;18.30;38.94
30819;BME280;17546;42.674;23.284;2023-04-01T04:33:16;93643.34;;;17.80;39.24
30819;BME280;17546;42.674;23.284;2023-04-01T04:35:41;93650.47;;;18.49;38.06
30819;BME280;17546;42.674;23.284;2023-04-01T04:38:07;93665.00;;;18.30;38.97
30819;BME280;17546;42.674;23.284;2023-04-01T04:40:32;93637.03;;;17.80;39.45
30819;BME280;17546;42.674;23.284;2023-04-01T04:42:58;93610.44;;;17.63;39.10
30819;BME280;17546;42.674;23.284;2023-04-01T04:45:23;93620.38;;;18.07;39.00
30819;BME280;17546;42.674;23.284;2023-04-01T04:47:48;93622.19;;;18.37;38.84
30819;BME280;17546;42.674;23.284;2023-04-01T04:50:14;93610.28;;;18.29;38.50
30819;BME280;17546;42.674;23.284;2023-04-01T04:52:39;93611.94;;;18.49;37.56
30819;BME280;17546;42.674;23.284;2023-04-01T04:55:05;93593.72;;;18.41;38.06
30819;BME280;17546;42.674;23.284;2023-04-01T04:57:31;93619.47;;;18.64;37.08
30819;BME280;17546;42.674;23.284;2023-04-01T04:59:56;93618.28;;;18.67;37.06
30819;BME280;17546;42.674;23.284;2023-04-01T05:02:22;93601.31;;;18.48;36.96
30819;BME280;17546;42.674;23.284;2023-04-01T05:04:47;93594.03;;;18.27;37.38
30819;BME280;17546;42.674;23.284;2023-04-01T05:07:12;93601.16;;;18.28;36.72
30819;BME280;17546;42.674;23.284;2023-04-01T05:09:38;93602.06;;;18.48;36.94
30819;BME280;17546;42.674;23.284;2023-04-01T05:12:04;93597.44;;;18.61;36.72
30819;BME280;17546;42.674;23.284;2023-04-01T05:14:29;93597.53;;;18.53;36.94
30819;BME280;17546;42.674;23.284;2023-04-01T05:16:55;93575.69;;;17.91;37.21
30819;BME280;17546;42.674;23.284;2023-04-01T05:19:20;93571.69;;;17.77;37.85
30819;BME280;17546;42.674;23.284;2023-04-01T05:21:46;93563.03;;;17.90;37.80
30819;BME280;17546;42.674;23.284;2023-04-01T05:24:11;93545.00;;;17.76;37.84
30819;BME280;17546;42.674;23.284;2023-04-01T05:26:36;93578.88;;;17.63;38.19
30819;BME280;17546;42.674;23.284;2023-04-01T05:29:03;93579.69;;;17.55;38.27
30819;BME280;17546;42.674;23.284;2023-04-01T05:31:29;93544.09;;;16.90;39.42
30819;BME280;17546;42.674;23.284;2023-04-01T05:33:54;93574.09;;;17.55;38.75
30819;BME280;17546;42.674;23.284;2023-04-01T05:36:20;93575.28;;;17.20;38.89
30819;BME280;17546;42.674;23.284;2023-04-01T05:38:45;93516.69;;;16.48;38.69
30819;BME280;17546;42.674;23.284;2023-04-01T05:41:12;93555.59;;;17.60;37.29
30819;BME280;17546;42.674;23.284;2023-04-01T05:43:39;93558.66;;;17.72;36.66
30819;BME280;17546;42.674;23.284;2023-04-01T05:46:05;93574.09;;;18.06;36.66
30819;BME280;17546;42.674;23.284;2023-04-01T05:48:30;93570.63;;;18.15;36.63
30819;BME280;17546;42.674;23.284;2023-04-01T05:50:56;93560.41;;;18.27;36.35
30819;BME280;17546;42.674;23.284;2023-04-01T05:53:21;93541.84;;;17.97;36.53
30819;BME280;17546;42.674;23.284;2023-04-01T05:55:47;93535.97;;;17.60;36.85
30819;BME280;17546;42.674;23.284;2023-04-01T05:58:13;93549.19;;;17.92;36.35
30819;BME280;17546;42.674;23.284;2023-04-01T06:00:38;93529.00;;;18.29;35.54
30819;BME280;17546;42.674;23.284;2023-04-01T06:03:03;93538.47;;;18.51;35.91
30819;BME280;17546;42.674;23.284;2023-04-01T06:05:30;93551.75;;;18.68;35.46
30819;BME280;17546;42.674;23.284;2023-04-01T06:08:09;93561.06;;;18.35;35.26
30819;BME280;17546;42.674;23.284;2023-04-01T06:48:42;93515.94;;;19.67;33.33
30819;BME280;17546;42.674;23.284;2023-04-01T06:54:04;93498.66;;;19.71;33.03
30819;BME280;17546;42.674;23.284;2023-04-01T06:56:31;93484.16;;;19.65;32.49
30819;BME280;17546;42.674;23.284;2023-04-01T06:59:01;93470.19;;;19.01;33.50
30819;BME280;17546;42.674;23.284;2023-04-01T07:01:33;93477.38;;;18.94;33.56
30819;BME280;17546;42.674;23.284;2023-04-01T07:04:04;93491.69;;;19.25;33.60
30819;BME280;17546;42.674;23.284;2023-04-01T07:06:35;93497.28;;;19.62;33.55
30819;BME280;17546;42.674;23.284;2023-04-01T07:09:09;93495.53;;;19.67;32.93
30819;BME280;17546;42.674;23.284;2023-04-01T07:11:37;93484.06;;;19.82;32.87
30819;BME280;17546;42.674;23.284;2023-04-01T07:16:39;93473.59;;;19.09;34.60
30819;BME280;17546;42.674;23.284;2023-04-01T07:21:51;93502.97;;;19.81;33.75
30819;BME280;17546;42.674;23.284;2023-04-01T07:24:25;93500.72;;;19.70;34.24
30819;BME280;17546;42.674;23.284;2023-04-01T07:26:55;93530.22;;;19.98;33.84
30819;BME280;17546;42.674;23.284;2023-04-01T07:29:21;93507.88;;;19.44;34.59
30819;BME280;17546;42.674;23.284;2023-04-01T07:32:09;93485.63;;;19.29;35.25
30819;BME280;17546;42.674;23.284;2023-04-01T07:35:00;93525.31;;;19.15;35.92
30819;BME280;17546;42.674;23.284;2023-04-01T07:46:38;93457.38;;;19.07;35.15
30819;BME280;17546;42.674;23.284;2023-04-01T07:49:17;93485.06;;;19.77;34.65
30819;BME280;17546;42.674;23.284;2023-04-01T07:54:57;93493.38;;;19.94;34.01
30819;BME280;17546;42.674;23.284;2023-04-01T08:00:24;93480.38;;;19.89;34.69
30819;BME280;17546;42.674;23.284;2023-04-01T08:05:46;93483.50;;;20.22;34.47
30819;BME280;17546;42.674;23.284;2023-04-01T08:08:43;93477.56;;;20.28;34.13
30819;BME280;17546;42.674;23.284;2023-04-01T08:22:23;93413.56;;;20.87;33.35
30819;BME280;17546;42.674;23.284;2023-04-01T08:24:52;93436.13;;;20.68;33.33
30819;BME280;17546;42.674;23.284;2023-04-01T08:32:47;93428.28;;;21.17;32.93
30819;BME280;17546;42.674;23.284;2023-04-01T08:35:39;93414.97;;;21.70;32.97
30819;BME280;17546;42.674;23.284;2023-04-01T08:38:13;93398.13;;;22.03;32.37
30819;BME280;17546;42.674;23.284;2023-04-01T08:46:17;93368.75;;;21.85;33.41
30819;BME280;17546;42.674;23.284;2023-04-01T08:58:32;93386.94;;;23.17;30.18
30819;BME280;17546;42.674;23.284;2023-04-01T09:01:14;93382.22;;;22.86;30.25
30819;BME280;17546;42.674;23.284;2023-04-01T09:06:37;93384.31;;;22.19;29.94
30819;BME280;17546;42.674;23.284;2023-04-01T09:20:47;93364.19;;;23.27;28.75
30819;BME280;17546;42.674;23.284;2023-04-01T09:23:20;93368.50;;;23.04;28.46
30819;BME280;17546;42.674;23.284;2023-04-01T09:28:18;93360.63;;;23.26;28.46
30819;BME280;17546;42.674;23.284;2023-04-01T09:44:52;93313.34;;;23.27;25.94
30819;BME280;17546;42.674;23.284;2023-04-01T10:07:03;93256.13;;;25.08;22.17
30819;BME280;17546;42.674;23.284;2023-04-01T10:37:54;93242.25;;;24.59;25.48
30819;BME280;17546;42.674;23.284;2023-04-01T10:51:45;93226.63;;;24.58;26.48
30819;BME280;17546;42.674;23.284;2023-04-01T11:33:20;93292.09;;;22.90;28.76
30819;BME280;17546;42.674;23.284;2023-04-01T11:35:54;93274.06;;;22.84;29.10
30819;BME280;17546;42.674;23.284;2023-04-01T11:41:33;93328.75;;;22.32;32.46
30819;BME280;17546;42.674;23.284;2023-04-01T11:58:18;93464.41;;;18.54;45.99
30819;BME280;17546;42.674;23.284;2023-04-01T12:03:46;93476.59;;;18.04;47.64
30819;BME280;17546;42.674;23.284;2023-04-01T12:11:57;93451.88;;;16.75;52.35
30819;BME280;17546;42.674;23.284;2023-04-01T12:17:09;93429.09;;;17.11;51.08
30819;BME280;17546;42.674;23.284;2023-04-01T12:19:48;93443.75;;;17.62;51.20
30819;BME280;17546;42.674;23.284;2023-04-01T12:33:15;93432.19;;;18.45;49.02
30819;BME280;17546;42.674;23.284;2023-04-01T12:35:55;93462.88;;;18.88;48.58
30819;BME280;17546;42.674;23.284;2023-04-01T12:38:51;93450.34;;;18.71;47.60
30819;BME280;17546;42.674;23.284;2023-04-01T12:50:28;93446.41;;;19.02;46.87
30819;BME280;17546;42.674;23.284;2023-04-01T12:56:29;93436.06;;;18.50;46.69
30819;BME280;17546;42.674;23.284;2023-04-01T12:59:44;93421.56;;;18.98;46.57
30819;BME280;17546;42.674;23.284;2023-04-01T13:10:38;93392.38;;;19.11;46.01
30819;BME280;17546;42.674;23.284;2023-04-01T13:19:52;93359.94;;;19.37;44.08
30819;BME280;17546;42.674;23.284;2023-04-01T13:24:30;93356.47;;;18.72;44.16
30819;BME280;17546;42.674;23.284;2023-04-01T13:30:09;93349.72;;;19.22;42.90
30819;BME280;17546;42.674;23.284;2023-04-01T13:32:44;93361.59;;;19.59;43.00
30819;BME280;17546;42.674;23.284;2023-04-01T13:43:25;93319.47;;;19.79;40.17
30819;BME280;17546;42.674;23.284;2023-04-01T14:11:26;93273.00;;;20.58;35.20
30819;BME280;17546;42.674;23.284;2023-04-01T14:17:10;93272.28;;;21.10;34.00
30819;BME280;17546;42.674;23.284;2023-04-01T14:37:07;93232.81;;;20.98;34.65
30819;BME280;17546;42.674;23.284;2023-04-01T14:51:34;93225.25;;;21.44;31.55
30819;BME280;17546;42.674;23.284;2023-04-01T14:56:50;93227.72;;;21.83;31.27
30819;BME280;17546;42.674;23.284;2023-04-01T15:01:55;93239.44;;;21.46;31.51
30819;BME280;17546;42.674;23.284;2023-04-01T15:04:45;93247.91;;;21.79;31.74
30819;BME280;17546;42.674;23.284;2023-04-01T15:42:43;93279.25;;;21.74;31.49
30819;BME280;17546;42.674;23.284;2023-04-01T15:45:31;93318.34;;;21.36;32.01
30819;BME280;17546;42.674;23.284;2023-04-01T15:54:06;93473.53;;;15.32;45.21
30819;BME280;17546;42.674;23.284;2023-04-01T16:01:50;93513.69;;;13.37;55.04
30819;BME280;17546;42.674;23.284;2023-04-01T16:16:31;93547.41;;;12.57;59.70
30819;BME280;17546;42.674;23.284;2023-04-01T16:27:41;93557.78;;;13.12;56.54
30819;BME280;17546;42.674;23.284;2023-04-01T16:35:58;93563.84;;;13.45;54.69
30819;BME280;17546;42.674;23.284;2023-04-01T16:49:03;93603.91;;;14.28;51.81
30819;BME280;17546;42.674;23.284;2023-04-01T16:51:47;93578.44;;;14.24;51.31
30819;BME280;17546;42.674;23.284;2023-04-01T16:57:03;93601.97;;;14.15;51.25
30819;BME280;17546;42.674;23.284;2023-04-01T17:02:17;93608.59;;;14.33;50.98
30819;BME280;17546;42.674;23.284;2023-04-01T17:04:57;93614.41;;;14.79;50.25
30819;BME280;17546;42.674;23.284;2023-04-01T17:10:46;93633.00;;;14.19;50.01
30819;BME280;17546;42.674;23.284;2023-04-01T17:19:23;93648.41;;;13.92;49.78
30819;BME280;17546;42.674;23.284;2023-04-01T17:49:49;93649.13;;;14.13;50.03
30819;BME280;17546;42.674;23.284;2023-04-01T17:58:20;93659.59;;;13.99;49.23
30819;BME280;17546;42.674;23.284;2023-04-01T18:06:34;93684.44;;;14.47;48.09
30819;BME280;17546;42.674;23.284;2023-04-01T18:20:54;93711.25;;;13.66;50.69
30819;BME280;17546;42.674;23.284;2023-04-01T18:23:26;93700.50;;;13.62;50.84
30819;BME280;17546;42.674;23.284;2023-04-01T18:26:10;93709.44;;;13.48;51.10
30819;BME280;17546;42.674;23.284;2023-04-01T18:28:52;93716.41;;;13.62;50.90
30819;BME280;17546;42.674;23.284;2023-04-01T18:31:24;93722.53;;;14.23;49.39
30819;BME280;17546;42.674;23.284;2023-04-01T18:36:24;93720.22;;;13.93;49.63
30819;BME280;17546;42.674;23.284;2023-04-01T18:39:18;93711.34;;;13.74;50.36
30819;BME280;17546;42.674;23.284;2023-04-01T18:44:52;93701.97;;;13.29;50.72
30819;BME280;17546;42.674;23.284;2023-04-01T18:47:44;93708.84;;;13.62;49.64
30819;BME280;17546;42.674;23.284;2023-04-01T18:55:57;93687.50;;;13.86;48.72
30819;BME280;17546;42.674;23.284;2023-04-01T18:58:26;93713.91;;;14.14;48.46
30819;BME280;17546;42.674;23.284;2023-04-01T19:04:00;93721.38;;;14.19;47.70
30819;BME280;17546;42.674;23.284;2023-04-01T19:09:45;93718.34;;;13.33;49.65
30819;BME280;17546;42.674;23.284;2023-04-01T19:18:22;93752.88;;;13.72;49.25
30819;BME280;17546;42.674;23.284;2023-04-01T19:20:33;93746.09;;;12.85;50.71
30819;BME280;17546;42.674;23.284;2023-04-01T19:26:00;93743.06;;;13.23;49.32
30819;BME280;17546;42.674;23.284;2023-04-01T19:34:02;93767.50;;;13.85;47.71
30819;BME280;17546;42.674;23.284;2023-04-01T19:37:02;93770.38;;;13.80;47.70
30819;BME280;17546;42.674;23.284;2023-04-01T19:45:55;93799.16;;;13.61;47.90
30819;BME280;17546;42.674;23.284;2023-04-01T19:48:48;93792.34;;;13.83;47.22
30819;BME280;17546;42.674;23.284;2023-04-01T19:57:17;93793.53;;;14.09;46.23
30819;BME280;17546;42.674;23.284;2023-04-01T19:59:53;93782.72;;;13.71;46.63
30819;BME280;17546;42.674;23.284;2023-04-01T20:10:55;93782.72;;;14.26;44.75
30819;BME280;17546;42.674;23.284;2023-04-01T20:13:35;93768.50;;;14.38;44.63
30819;BME280;17546;42.674;23.284;2023-04-01T20:16:09;93783.72;;;14.37;44.59
30819;BME280;17546;42.674;23.284;2023-04-01T20:18:55;93774.22;;;14.32;44.63
30819;BME280;17546;42.674;23.284;2023-04-01T20:21:42;93774.28;;;14.19;44.98
30819;BME280;17546;42.674;23.284;2023-04-01T20:26:43;93784.13;;;13.99;45.24
30819;BME280;17546;42.674;23.284;2023-04-01T20:29:37;93782.44;;;14.17;44.91
30819;BME280;17546;42.674;23.284;2023-04-01T20:32:18;93769.03;;;14.15;44.54
30819;BME280;17546;42.674;23.284;2023-04-01T20:37:52;93783.91;;;14.39;44.48
30819;BME280;17546;42.674;23.284;2023-04-01T20:40:37;93795.00;;;14.31;44.53
30819;BME280;17546;42.674;23.284;2023-04-01T20:48:46;93796.16;;;13.94;45.06
30819;BME280;17546;42.674;23.284;2023-04-01T20:51:21;93801.13;;;14.30;44.08
30819;BME280;17546;42.674;23.284;2023-04-01T20:58:54;93786.44;;;14.29;44.45
30819;BME280;17546;42.674;23.284;2023-04-01T21:12:49;93813.41;;;13.92;43.91
30819;BME280;17546;42.674;23.284;2023-04-01T21:29:56;93819.25;;;14.23;43.06
30819;BME280;17546;42.674;23.284;2023-04-01T21:57:48;93816.19;;;14.34;41.57
30819;BME280;17546;42.674;23.284;2023-04-01T22:03:09;93773.19;;;13.46;42.49
30819;BME280;17546;42.674;23.284;2023-04-01T22:11:13;93817.50;;;14.12;42.12
30819;BME280;17546;42.674;23.284;2023-04-01T22:13:53;93786.78;;;14.25;41.51
30819;BME280;17546;42.674;23.284;2023-04-01T22:21:44;93788.22;;;14.19;41.02
30819;BME280;17546;42.674;23.284;2023-04-01T22:24:33;93805.38;;;14.73;40.51
30819;BME280;17546;42.674;23.284;2023-04-01T22:27:40;93805.44;;;14.80;40.32
30819;BME280;17546;42.674;23.284;2023-04-01T22:32:45;93815.91;;;14.03;41.76
30819;BME280;17546;42.674;23.284;2023-04-01T22:35:21;93802.31;;;14.00;41.37
30819;BME280;17546;42.674;23.284;2023-04-01T22:43:15;93804.63;;;13.88;41.30
30819;BME280;17546;42.674;23.284;2023-04-01T22:45:48;93825.16;;;13.98;41.00
30819;BME280;17546;42.674;23.284;2023-04-01T22:56:43;93827.00;;;14.38;40.32
30819;BME280;17546;42.674;23.284;2023-04-01T22:59:19;93836.72;;;14.44;40.71
30819;BME280;17546;42.674;23.284;2023-04-01T23:02:00;93821.91;;;14.08;40.61
30819;BME280;17546;42.674;23.284;2023-04-01T23:04:38;93826.31;;;14.03;40.75
30819;BME280;17546;42.674;23.284;2023-04-01T23:07:28;93843.16;;;14.39;40.22
30819;BME280;17546;42.674;23.284;2023-04-01T23:09:58;93853.97;;;14.85;39.24
30819;BME280;17546;42.674;23.284;2023-04-01T23:12:27;93839.28;;;14.84;39.37
30819;BME280;17546;42.674;23.284;2023-04-01T23:14:59;93840.72;;;14.15;40.46
30819;BME280;17546;42.674;23.284;2023-04-01T23:35:57;93839.13;;;14.06;40.84
30819;BME280;17546;42.674;23.284;2023-04-01T23:38:36;93846.19;;;14.62;39.70
30819;BME280;17546;42.674;23.284;2023-04-01T23:41:04;93837.84;;;14.91;38.82
30819;BME280;17546;42.674;23.284;2023-04-01T23:43:36;93856.16;;;14.37;39.65
30819;BME280;17546;42.674;23.284;2023-04-01T23:46:03;93851.34;;;14.58;39.51
30819;BME280;17546;42.674;23.284;2023-04-01T23:48:44;93838.97;;;13.91;40.36
30819;BME280;17546;42.674;23.284;2023-04-01T23:51:20;93830.38;;;14.44;39.61
30819;BME280;17546;42.674;23.284;2023-04-01T23:53:48;93849.72;;;14.42;39.22
30819;BME280;17546;42.674;23.284;2023-04-01T23:56:21;93829.81;;;14.59;38.82
30819;BME280;17546;42.674;23.284;2023-04-01T23:58:52;93853.47;;;14.94;38.79
